createdAt,value
2023-07-27T00:01:05.194Z,12.92
2023-07-27T00:03:33.521Z,13.03
2023-07-27T00:06:02.826Z,13.03
2023-07-27T00:08:31.031Z,13.01
2023-07-27T00:10:59.077Z,13.00
2023-07-27T00:13:27.009Z,12.96
2023-07-27T00:15:54.970Z,12.88
2023-07-27T00:18:22.908Z,12.77
2023-07-27T00:20:50.977Z,12.77
2023-07-27T00:23:20.321Z,12.71
2023-07-27T00:25:48.378Z,12.58
2023-07-27T00:28:16.417Z,12.46
2023-07-27T00:30:44.365Z,12.43
2023-07-27T00:33:12.421Z,12.42
2023-07-27T00:35:40.410Z,12.47
2023-07-27T00:38:08.404Z,12.51
2023-07-27T00:40:37.775Z,12.54
2023-07-27T00:43:05.799Z,12.51
2023-07-27T00:45:34.053Z,12.45
2023-07-27T00:48:02.185Z,12.45
2023-07-27T00:50:31.166Z,12.41
2023-07-27T00:52:59.966Z,12.44
2023-07-27T00:55:28.062Z,12.36
2023-07-27T00:57:57.426Z,12.34
2023-07-27T01:00:25.454Z,12.24
2023-07-27T01:02:53.502Z,12.16
2023-07-27T01:05:21.668Z,12.23
2023-07-27T01:07:49.638Z,12.19
2023-07-27T01:10:17.940Z,12.18
2023-07-27T01:12:50.840Z,12.28
2023-07-27T01:15:26.931Z,12.21
2023-07-27T01:18:00.465Z,12.38
2023-07-27T01:20:35.579Z,12.37
2023-07-27T01:23:39.228Z,12.33
2023-07-27T01:26:36.598Z,12.27
2023-07-27T01:29:10.838Z,12.32
2023-07-27T01:31:43.775Z,12.38
2023-07-27T01:34:17.860Z,12.46
2023-07-27T01:36:49.963Z,12.50
2023-07-27T01:39:21.137Z,12.50
2023-07-27T01:41:50.237Z,12.55
2023-07-27T01:44:19.184Z,12.61
2023-07-27T01:46:48.907Z,12.65
2023-07-27T01:49:18.212Z,12.65
2023-07-27T01:51:47.490Z,12.60
2023-07-27T01:54:16.198Z,12.64
2023-07-27T01:56:46.834Z,12.70
2023-07-27T01:59:15.445Z,12.65
2023-07-27T02:01:44.821Z,12.60
2023-07-27T02:04:16.026Z,12.62
2023-07-27T02:06:44.024Z,12.59
2023-07-27T02:09:12.009Z,12.56
2023-07-27T02:11:44.901Z,12.57
2023-07-27T02:14:27.646Z,12.59
2023-07-27T02:16:58.688Z,12.44
2023-07-27T02:19:31.641Z,12.64
2023-07-27T02:22:00.716Z,12.58
2023-07-27T02:24:29.026Z,12.52
2023-07-27T02:26:58.023Z,12.52
2023-07-27T02:29:26.141Z,12.60
2023-07-27T02:31:54.208Z,12.47
2023-07-27T02:34:22.212Z,12.57
2023-07-27T02:36:51.563Z,12.52
2023-07-27T02:39:19.621Z,12.51
2023-07-27T02:41:47.548Z,12.48
2023-07-27T02:44:20.455Z,12.47
2023-07-27T02:46:49.828Z,12.35
2023-07-27T02:49:17.882Z,12.39
2023-07-27T02:51:46.295Z,12.43
2023-07-27T02:54:15.816Z,12.41
2023-07-27T02:56:43.805Z,12.39
2023-07-27T02:59:11.772Z,12.28
2023-07-27T03:01:44.855Z,12.34
2023-07-27T03:04:18.952Z,12.32
2023-07-27T03:06:47.099Z,12.24
2023-07-27T03:09:16.928Z,12.27
2023-07-27T03:11:44.942Z,12.23
2023-07-27T03:14:12.946Z,12.24
2023-07-27T03:16:41.134Z,12.20
2023-07-27T03:19:09.956Z,12.21
2023-07-27T03:21:38.138Z,12.19
2023-07-27T03:24:06.539Z,12.24
2023-07-27T03:26:36.236Z,12.22
2023-07-27T03:29:04.465Z,12.17
2023-07-27T03:31:32.492Z,12.23
2023-07-27T03:34:00.459Z,12.21
2023-07-27T03:36:28.444Z,12.31
2023-07-27T03:38:56.423Z,12.23
2023-07-27T03:41:24.396Z,12.36
2023-07-27T03:43:53.859Z,12.30
2023-07-27T03:46:22.314Z,12.38
2023-07-27T03:48:51.119Z,12.47
2023-07-27T03:51:19.359Z,12.41
2023-07-27T03:53:47.372Z,12.59
2023-07-27T03:56:15.393Z,12.65
2023-07-27T03:58:43.346Z,12.72
2023-07-27T04:01:12.703Z,12.70
2023-07-27T04:03:40.770Z,12.70
2023-07-27T04:06:08.702Z,12.75
2023-07-27T04:08:36.701Z,12.83
2023-07-27T04:11:04.647Z,12.83
2023-07-27T04:13:32.597Z,12.96
2023-07-27T04:16:00.618Z,12.86
2023-07-27T04:18:30.021Z,13.06
2023-07-27T04:20:58.039Z,12.93
2023-07-27T04:23:26.796Z,13.15
2023-07-27T04:25:54.829Z,13.24
2023-07-27T04:28:23.497Z,13.22
2023-07-27T04:30:51.516Z,13.12
2023-07-27T04:33:19.512Z,13.35
2023-07-27T04:35:48.836Z,13.43
2023-07-27T04:38:16.823Z,13.23
2023-07-27T04:40:44.885Z,13.54
2023-07-27T04:43:13.272Z,13.57
2023-07-27T04:45:41.294Z,13.67
2023-07-27T04:48:09.388Z,13.71
2023-07-27T04:50:37.819Z,13.70
2023-07-27T04:53:07.272Z,13.81
2023-07-27T04:55:35.267Z,13.80
2023-07-27T04:58:03.473Z,13.88
2023-07-27T05:00:31.636Z,13.91
2023-07-27T05:03:00.352Z,13.97
2023-07-27T05:05:28.463Z,14.06
2023-07-27T05:07:56.431Z,14.12
2023-07-27T05:10:25.999Z,14.13
2023-07-27T05:12:53.961Z,14.08
2023-07-27T05:15:21.882Z,14.07
2023-07-27T05:17:49.936Z,14.16
2023-07-27T05:20:17.954Z,14.25
2023-07-27T05:22:45.948Z,14.24
2023-07-27T05:25:15.123Z,14.02
2023-07-27T05:27:44.447Z,14.24
2023-07-27T05:30:13.336Z,14.22
2023-07-27T05:32:41.373Z,14.16
2023-07-27T05:35:09.835Z,14.18
2023-07-27T05:37:37.778Z,14.19
2023-07-27T05:40:07.115Z,14.13
2023-07-27T05:42:35.097Z,14.06
2023-07-27T05:45:04.632Z,13.97
2023-07-27T05:47:32.762Z,13.88
2023-07-27T05:50:00.878Z,13.87
2023-07-27T05:52:28.847Z,13.98
2023-07-27T05:54:56.827Z,14.06
2023-07-27T05:57:25.012Z,14.07
2023-07-27T06:00:05.254Z,14.09
2023-07-27T06:02:36.759Z,14.17
2023-07-27T06:05:05.946Z,14.18
2023-07-27T06:07:33.967Z,14.21
2023-07-27T06:10:02.096Z,14.18
2023-07-27T06:12:30.126Z,14.23
2023-07-27T06:14:58.237Z,14.24
2023-07-27T06:17:26.894Z,14.29
2023-07-27T06:19:56.334Z,14.33
2023-07-27T06:22:24.388Z,14.29
2023-07-27T06:24:52.349Z,14.37
2023-07-27T06:27:20.367Z,14.35
2023-07-27T06:29:48.299Z,14.41
2023-07-27T06:32:16.504Z,14.49
2023-07-27T06:34:44.553Z,14.55
2023-07-27T06:37:13.864Z,14.65
2023-07-27T06:39:42.940Z,14.67
2023-07-27T06:42:17.490Z,14.70
2023-07-27T06:44:45.760Z,14.70
2023-07-27T06:47:13.814Z,14.78
2023-07-27T06:49:41.816Z,14.96
2023-07-27T06:52:10.605Z,15.03
2023-07-27T06:54:40.925Z,15.11
2023-07-27T06:57:11.459Z,14.99
2023-07-27T06:59:39.753Z,14.99
2023-07-27T07:02:08.188Z,15.15
2023-07-27T07:04:38.542Z,15.09
2023-07-27T07:07:09.070Z,15.12
2023-07-27T07:09:37.547Z,15.16
2023-07-27T07:12:10.014Z,15.10
2023-07-27T07:14:38.098Z,14.89
2023-07-27T07:17:08.521Z,14.84
2023-07-27T07:19:36.689Z,14.98
2023-07-27T07:22:05.498Z,14.91
2023-07-27T07:24:33.905Z,14.92
2023-07-27T07:27:02.097Z,14.80
2023-07-27T07:29:31.646Z,14.88
2023-07-27T07:31:59.674Z,14.68
2023-07-27T07:34:27.739Z,14.84
2023-07-27T07:36:58.044Z,14.80
2023-07-27T07:39:26.302Z,14.80
2023-07-27T07:41:54.330Z,14.76
2023-07-27T07:44:22.357Z,14.79
2023-07-27T07:46:55.848Z,14.69
2023-07-27T07:49:26.845Z,14.68
2023-07-27T07:51:54.933Z,14.45
2023-07-27T07:54:22.883Z,14.68
2023-07-27T07:56:53.908Z,14.52
2023-07-27T07:59:21.878Z,14.74
2023-07-27T08:01:51.596Z,14.54
2023-07-27T08:04:20.158Z,14.76
2023-07-27T08:06:50.732Z,14.85
2023-07-27T08:09:18.978Z,14.69
2023-07-27T08:11:47.012Z,14.70
2023-07-27T08:14:15.080Z,14.92
2023-07-27T08:16:43.347Z,14.80
2023-07-27T08:19:12.820Z,14.97
2023-07-27T08:21:43.874Z,14.84
2023-07-27T08:24:11.949Z,14.79
2023-07-27T08:26:40.081Z,14.97
2023-07-27T08:29:08.130Z,14.97
2023-07-27T08:31:36.105Z,15.09
2023-07-27T08:34:04.156Z,14.98
2023-07-27T08:36:34.341Z,15.13
2023-07-27T08:39:02.517Z,15.16
2023-07-27T08:41:31.147Z,14.93
2023-07-27T08:43:59.908Z,15.03
2023-07-27T08:46:32.009Z,15.02
2023-07-27T08:49:01.442Z,15.14
2023-07-27T08:51:32.095Z,14.96
2023-07-27T08:54:01.518Z,15.12
2023-07-27T08:56:30.579Z,15.13
2023-07-27T08:58:58.788Z,15.11
2023-07-27T09:01:27.471Z,15.06
2023-07-27T09:03:55.531Z,15.30
2023-07-27T09:06:38.879Z,15.30
2023-07-27T09:09:19.390Z,15.41
2023-07-27T09:11:48.065Z,15.51
2023-07-27T09:14:17.865Z,15.47
2023-07-27T09:16:46.514Z,15.52
2023-07-27T09:19:14.905Z,15.57
2023-07-27T09:21:45.655Z,15.52
2023-07-27T09:24:14.754Z,15.52
2023-07-27T09:26:48.881Z,15.58
2023-07-27T09:29:18.104Z,15.58
2023-07-27T09:31:47.916Z,15.79
2023-07-27T09:34:16.304Z,15.72
2023-07-27T09:36:44.889Z,15.85
2023-07-27T09:39:14.555Z,15.78
2023-07-27T09:41:44.792Z,15.48
2023-07-27T09:44:16.276Z,15.49
2023-07-27T09:46:45.991Z,15.27
2023-07-27T09:49:14.963Z,15.14
2023-07-27T09:51:48.025Z,15.12
2023-07-27T09:54:16.322Z,15.07
2023-07-27T09:56:44.584Z,15.01
2023-07-27T09:59:15.096Z,14.84
2023-07-27T10:01:44.486Z,14.93
2023-07-27T10:04:15.109Z,14.85
2023-07-27T10:06:43.888Z,15.01
2023-07-27T10:09:21.530Z,15.02
2023-07-27T10:11:57.182Z,14.89
2023-07-27T10:14:27.579Z,14.92
2023-07-27T10:17:01.311Z,14.91
2023-07-27T10:19:41.087Z,14.80
2023-07-27T10:22:09.956Z,14.90
2023-07-27T10:24:51.742Z,14.74
2023-07-27T10:27:20.411Z,14.95
2023-07-27T10:29:50.180Z,14.89
2023-07-27T10:32:19.772Z,15.01
2023-07-27T10:34:52.768Z,14.99
2023-07-27T10:37:20.959Z,14.99
2023-07-27T10:39:51.893Z,15.00
2023-07-27T10:42:21.548Z,14.92
2023-07-27T10:44:51.276Z,14.76
2023-07-27T10:47:23.391Z,14.78
2023-07-27T10:49:53.331Z,14.83
2023-07-27T10:52:23.367Z,14.85
2023-07-27T10:54:53.284Z,14.87
2023-07-27T10:57:22.781Z,14.93
2023-07-27T10:59:52.603Z,14.84
2023-07-27T11:02:24.437Z,14.97
2023-07-27T11:04:53.863Z,14.90
2023-07-27T11:07:30.114Z,14.84
2023-07-27T11:09:59.055Z,14.84
2023-07-27T11:12:29.400Z,15.04
2023-07-27T11:14:59.247Z,15.13
2023-07-27T11:17:29.291Z,15.13
2023-07-27T11:19:58.362Z,14.97
2023-07-27T11:22:26.430Z,15.10
2023-07-27T11:24:54.636Z,15.19
2023-07-27T11:27:23.021Z,14.94
2023-07-27T11:29:52.622Z,15.16
2023-07-27T11:32:27.689Z,15.01
2023-07-27T11:34:57.502Z,15.13
2023-07-27T11:37:28.368Z,15.22
2023-07-27T11:39:56.573Z,15.18
2023-07-27T11:42:29.259Z,15.21
2023-07-27T11:45:01.555Z,15.29
2023-07-27T11:47:38.765Z,15.16
2023-07-27T11:50:10.917Z,15.28
2023-07-27T11:52:39.864Z,15.27
2023-07-27T11:55:08.997Z,15.13
2023-07-27T11:57:37.436Z,15.24
2023-07-27T12:00:13.523Z,15.05
2023-07-27T12:02:45.713Z,15.24
2023-07-27T12:05:19.683Z,15.09
2023-07-27T12:10:31.383Z,15.13
2023-07-27T12:15:33.039Z,15.08
2023-07-27T12:18:03.319Z,15.13
2023-07-27T12:25:39.704Z,15.66
2023-07-27T12:30:43.907Z,15.69
2023-07-27T12:33:12.681Z,15.72
2023-07-27T12:35:42.365Z,15.77
2023-07-27T12:43:12.840Z,16.01
2023-07-27T12:45:41.409Z,15.97
2023-07-27T12:48:09.596Z,16.03
2023-07-27T12:50:37.706Z,15.92
2023-07-27T12:53:10.322Z,16.02
2023-07-27T12:55:38.866Z,16.03
2023-07-27T12:58:06.902Z,15.99
2023-07-27T13:00:34.902Z,15.92
2023-07-27T13:03:03.021Z,15.84
2023-07-27T13:05:31.267Z,15.91
2023-07-27T13:07:59.321Z,15.89
2023-07-27T13:10:28.781Z,16.12
2023-07-27T13:12:56.820Z,16.08
2023-07-27T13:15:24.966Z,16.06
2023-07-27T13:17:54.004Z,16.19
2023-07-27T13:20:22.473Z,16.31
2023-07-27T13:22:50.480Z,16.27
2023-07-27T13:25:18.452Z,16.42
2023-07-27T13:27:48.422Z,16.56
2023-07-27T13:30:16.521Z,16.55
2023-07-27T13:32:44.615Z,16.73
2023-07-27T13:35:12.694Z,16.69
2023-07-27T13:37:41.414Z,16.71
2023-07-27T13:40:10.178Z,16.82
2023-07-27T13:42:42.372Z,16.75
2023-07-27T13:45:12.125Z,16.76
2023-07-27T13:47:47.361Z,16.74
2023-07-27T13:50:21.672Z,16.87
2023-07-27T13:52:49.671Z,16.88
2023-07-27T13:55:18.858Z,16.89
2023-07-27T13:57:46.865Z,16.82
2023-07-27T14:00:17.428Z,16.79
2023-07-27T14:02:45.506Z,16.78
2023-07-27T14:05:14.340Z,16.78
2023-07-27T14:07:42.503Z,16.70
2023-07-27T14:10:10.835Z,16.84
2023-07-27T14:12:38.976Z,16.90
2023-07-27T14:15:08.050Z,16.91
2023-07-27T14:17:38.074Z,16.96
2023-07-27T14:20:07.837Z,16.81
2023-07-27T14:22:36.683Z,16.84
2023-07-27T14:25:05.460Z,16.68
2023-07-27T14:30:05.618Z,16.78
2023-07-27T14:32:33.670Z,16.95
2023-07-27T14:35:03.381Z,17.01
2023-07-27T14:37:31.599Z,17.03
2023-07-27T14:40:02.271Z,16.97
2023-07-27T14:42:31.234Z,17.08
2023-07-27T14:44:59.436Z,17.06
2023-07-27T14:47:28.313Z,17.12
2023-07-27T14:49:57.982Z,17.10
2023-07-27T14:52:33.231Z,17.18
2023-07-27T14:55:02.062Z,16.92
2023-07-27T14:57:30.107Z,17.18
2023-07-27T15:02:45.374Z,17.06
2023-07-27T15:05:14.208Z,17.16
2023-07-27T15:07:43.738Z,17.14
2023-07-27T15:10:29.280Z,17.11
2023-07-27T15:13:00.366Z,16.87
2023-07-27T15:15:29.286Z,17.03
2023-07-27T15:17:57.437Z,16.99
2023-07-27T15:20:25.770Z,17.15
2023-07-27T15:22:55.416Z,17.15
2023-07-27T15:25:23.375Z,17.26
2023-07-27T15:27:51.412Z,17.37
2023-07-27T15:30:19.409Z,17.32
2023-07-27T15:32:47.431Z,17.43
2023-07-27T15:35:15.702Z,17.50
2023-07-27T15:37:43.671Z,17.55
2023-07-27T15:40:13.647Z,17.53
2023-07-27T15:42:41.718Z,17.35
2023-07-27T15:45:10.789Z,17.40
2023-07-27T15:47:38.853Z,17.26
2023-07-27T15:50:08.998Z,17.30
2023-07-27T15:52:41.728Z,17.39
2023-07-27T15:55:10.678Z,17.31
2023-07-27T15:57:40.332Z,17.17
2023-07-27T16:00:09.259Z,17.27
2023-07-27T16:02:37.347Z,17.34
2023-07-27T16:05:06.428Z,17.31
2023-07-27T16:07:34.457Z,17.25
2023-07-27T16:10:03.070Z,17.24
2023-07-27T16:12:31.259Z,17.18
2023-07-27T16:15:00.776Z,17.37
2023-07-27T16:17:29.071Z,17.33
2023-07-27T16:19:57.455Z,17.38
2023-07-27T16:22:25.694Z,17.38
2023-07-27T16:24:54.435Z,17.39
2023-07-27T16:27:23.033Z,17.39
2023-07-27T16:29:51.200Z,17.36
2023-07-27T16:32:20.867Z,17.38
2023-07-27T16:34:48.828Z,17.37
2023-07-27T16:37:16.949Z,17.23
2023-07-27T16:39:44.892Z,17.24
2023-07-27T16:42:12.851Z,17.35
2023-07-27T16:44:41.097Z,17.36
2023-07-27T16:47:09.127Z,17.43
2023-07-27T16:49:38.431Z,17.42
2023-07-27T16:52:07.377Z,17.38
2023-07-27T16:54:35.423Z,17.37
2023-07-27T16:57:03.404Z,17.41
2023-07-27T16:59:31.502Z,17.37
2023-07-27T17:01:59.720Z,17.41
2023-07-27T17:04:28.187Z,17.37
2023-07-27T17:06:57.574Z,17.47
2023-07-27T17:09:25.828Z,17.45
2023-07-27T17:11:54.041Z,17.41
2023-07-27T17:14:22.252Z,17.36
2023-07-27T17:16:50.437Z,17.36
2023-07-27T17:19:18.425Z,17.26
2023-07-27T17:21:46.409Z,17.38
2023-07-27T17:24:15.776Z,17.18
2023-07-27T17:26:43.741Z,17.32
2023-07-27T17:29:11.865Z,17.32
2023-07-27T17:31:39.872Z,17.22
2023-07-27T17:34:08.263Z,17.29
2023-07-27T17:36:36.445Z,17.24
2023-07-27T17:39:06.398Z,17.26
2023-07-27T17:41:37.520Z,17.25
2023-07-27T17:44:06.818Z,17.26
2023-07-27T17:46:35.309Z,17.28
2023-07-27T17:49:03.294Z,17.28
2023-07-27T17:51:32.928Z,17.33
2023-07-27T17:54:01.165Z,17.33
2023-07-27T17:56:29.161Z,17.31
2023-07-27T17:58:59.551Z,17.26
2023-07-27T18:01:27.748Z,17.31
2023-07-27T18:03:57.702Z,17.29
2023-07-27T18:06:26.414Z,17.30
2023-07-27T18:08:56.106Z,17.32
2023-07-27T18:11:24.126Z,17.17
2023-07-27T18:13:52.118Z,17.27
2023-07-27T18:16:21.893Z,17.30
2023-07-27T18:18:50.117Z,17.33
2023-07-27T18:21:18.518Z,17.30
2023-07-27T18:23:48.840Z,17.27
2023-07-27T18:26:17.964Z,17.37
2023-07-27T18:28:46.098Z,17.40
2023-07-27T18:31:14.192Z,17.35
2023-07-27T18:33:43.512Z,17.40
2023-07-27T18:36:14.326Z,17.38
2023-07-27T18:38:44.494Z,17.39
2023-07-27T18:41:14.708Z,17.41
2023-07-27T18:43:42.950Z,17.42
2023-07-27T18:46:11.344Z,17.40
2023-07-27T18:48:39.342Z,17.42
2023-07-27T18:51:08.895Z,17.36
2023-07-27T18:53:37.232Z,17.30
2023-07-27T18:56:05.928Z,17.45
2023-07-27T18:58:35.187Z,17.33
2023-07-27T19:01:07.406Z,17.41
2023-07-27T19:03:38.242Z,17.41
2023-07-27T19:06:06.485Z,17.45
2023-07-27T19:08:35.932Z,17.44
2023-07-27T19:11:04.858Z,17.44
2023-07-27T19:13:33.709Z,17.51
2023-07-27T19:16:03.204Z,17.39
2023-07-27T19:18:31.392Z,17.45
2023-07-27T19:20:59.443Z,17.29
2023-07-27T19:23:27.487Z,17.31
2023-07-27T19:25:56.919Z,17.33
2023-07-27T19:28:25.060Z,17.47
2023-07-27T19:30:53.199Z,17.45
2023-07-27T19:33:21.219Z,17.47
2023-07-27T19:35:50.619Z,17.51
2023-07-27T19:38:18.630Z,17.54
2023-07-27T19:40:46.613Z,17.50
2023-07-27T19:43:16.000Z,17.36
2023-07-27T19:45:44.104Z,17.24
2023-07-27T19:48:15.192Z,17.38
2023-07-27T19:50:43.272Z,17.41
2023-07-27T19:53:11.227Z,17.34
2023-07-27T19:55:39.273Z,17.35
2023-07-27T19:58:07.283Z,17.12
2023-07-27T20:00:36.625Z,17.23
2023-07-27T20:03:05.139Z,17.37
2023-07-27T20:05:33.339Z,17.34
2023-07-27T20:08:01.753Z,17.27
2023-07-27T20:10:29.791Z,17.17
2023-07-27T20:12:57.852Z,17.31
2023-07-27T20:15:25.851Z,17.13
2023-07-27T20:17:55.223Z,17.34
2023-07-27T20:20:23.157Z,17.33
2023-07-27T20:22:51.146Z,17.29
2023-07-27T20:25:19.085Z,17.36
2023-07-27T20:27:49.967Z,17.21
2023-07-27T20:30:17.890Z,17.35
2023-07-27T20:32:45.925Z,17.26
2023-07-27T20:35:15.484Z,17.33
2023-07-27T20:37:43.645Z,17.16
2023-07-27T20:40:12.637Z,17.32
2023-07-27T20:42:40.636Z,17.27
2023-07-27T20:45:10.281Z,17.32
2023-07-27T20:47:38.496Z,17.36
2023-07-27T20:50:10.484Z,17.28
2023-07-27T20:52:40.019Z,17.36
2023-07-27T20:55:08.779Z,17.32
2023-07-27T20:57:36.752Z,17.36
2023-07-27T21:00:06.884Z,17.24
2023-07-27T21:02:34.919Z,17.30
2023-07-27T21:05:02.959Z,17.21
2023-07-27T21:07:31.059Z,17.29
2023-07-27T21:10:00.396Z,16.89
2023-07-27T21:12:28.748Z,17.32
2023-07-27T21:14:56.704Z,17.31
2023-07-27T21:17:24.807Z,17.29
2023-07-27T21:19:52.814Z,17.19
2023-07-27T21:22:20.867Z,17.23
2023-07-27T21:24:48.898Z,17.29
2023-07-27T21:27:18.416Z,17.25
2023-07-27T21:29:46.357Z,17.16
2023-07-27T21:32:14.408Z,17.18
2023-07-27T21:34:42.573Z,17.22
2023-07-27T21:37:10.556Z,17.22
2023-07-27T21:39:38.646Z,17.25
2023-07-27T21:42:07.131Z,17.26
2023-07-27T21:44:36.429Z,17.19
2023-07-27T21:47:04.517Z,17.20
2023-07-27T21:49:32.549Z,17.26
2023-07-27T21:52:00.628Z,17.27
2023-07-27T21:54:28.964Z,17.30
2023-07-27T21:56:57.029Z,17.28
2023-07-27T21:59:25.087Z,17.24
2023-07-27T22:01:54.414Z,17.14
2023-07-27T22:04:22.573Z,17.21
2023-07-27T22:06:50.614Z,17.24
2023-07-27T22:09:18.600Z,17.16
2023-07-27T22:11:46.588Z,17.11
2023-07-27T22:14:14.568Z,17.12
2023-07-27T22:16:42.503Z,17.25
2023-07-27T22:19:11.869Z,17.19
2023-07-27T22:21:39.810Z,17.21
2023-07-27T22:24:08.083Z,17.11
2023-07-27T22:26:36.326Z,17.18
2023-07-27T22:29:04.508Z,17.18
2023-07-27T22:31:35.430Z,17.20
2023-07-27T22:34:03.365Z,16.99
2023-07-27T22:36:32.960Z,17.20
2023-07-27T22:39:01.179Z,17.16
2023-07-27T22:41:29.157Z,17.16
2023-07-27T22:43:57.064Z,17.12
2023-07-27T22:46:25.013Z,17.13
2023-07-27T22:48:53.272Z,16.96
2023-07-27T22:51:21.565Z,16.93
2023-07-27T22:53:51.386Z,17.10
2023-07-27T22:56:19.476Z,17.04
2023-07-27T22:58:47.411Z,17.10
2023-07-27T23:01:17.799Z,17.08
2023-07-27T23:03:45.904Z,17.06
2023-07-27T23:06:13.879Z,17.03
2023-07-27T23:08:41.859Z,17.10
2023-07-27T23:11:11.219Z,17.07
2023-07-27T23:13:39.204Z,17.11
2023-07-27T23:16:14.748Z,17.06
2023-07-27T23:18:42.719Z,17.15
2023-07-27T23:21:10.736Z,17.13
2023-07-27T23:23:38.742Z,17.13
2023-07-27T23:26:06.727Z,17.12
2023-07-27T23:28:36.114Z,17.12
2023-07-27T23:31:04.222Z,17.15
2023-07-27T23:33:32.224Z,17.07
2023-07-27T23:36:00.250Z,17.13
2023-07-27T23:38:28.215Z,17.01
2023-07-27T23:40:56.160Z,17.21
2023-07-27T23:43:24.116Z,17.17
2023-07-27T23:45:53.448Z,17.04
2023-07-27T23:48:21.384Z,17.18
2023-07-27T23:50:49.377Z,17.17
2023-07-27T23:53:17.355Z,17.20
2023-07-27T23:55:45.354Z,17.09
2023-07-27T23:58:13.363Z,17.13
